createdAt,value
2019-03-02T00:04:26.114Z,4.30
2019-03-02T00:06:51.897Z,4.31
2019-03-02T00:09:17.696Z,4.28
2019-03-02T00:11:43.473Z,4.29
2019-03-02T00:14:09.271Z,4.31
2019-03-02T00:16:35.051Z,4.29
2019-03-02T00:19:02.916Z,4.27
2019-03-02T00:21:31.369Z,4.27
2019-03-02T00:23:56.243Z,4.21
2019-03-02T00:26:22.029Z,4.18
2019-03-02T00:28:47.817Z,4.20
2019-03-02T00:31:13.592Z,4.17
2019-03-02T00:33:39.391Z,4.20
2019-03-02T00:36:05.166Z,4.26
2019-03-02T00:38:30.968Z,4.26
2019-03-02T00:40:56.751Z,4.21
2019-03-02T00:43:23.689Z,4.22
2019-03-02T00:45:50.263Z,4.23
2019-03-02T00:48:16.039Z,4.24
2019-03-02T00:50:41.815Z,4.22
2019-03-02T00:53:07.620Z,4.17
2019-03-02T00:55:33.392Z,4.25
2019-03-02T00:57:59.185Z,4.24
2019-03-02T01:00:24.979Z,4.28
2019-03-02T01:02:50.756Z,4.26
2019-03-02T01:05:16.539Z,4.28
2019-03-02T01:07:42.315Z,4.28
2019-03-02T01:10:49.790Z,4.25
2019-03-02T01:13:16.832Z,4.25
2019-03-02T01:15:44.012Z,4.25
2019-03-02T01:18:10.982Z,4.26
2019-03-02T01:20:36.779Z,4.28
2019-03-02T01:23:02.553Z,4.29
2019-03-02T01:25:28.357Z,4.30
2019-03-02T01:27:54.132Z,4.28
2019-03-02T01:30:19.923Z,4.22
2019-03-02T01:32:48.999Z,4.22
2019-03-02T01:35:16.397Z,4.19
2019-03-02T01:37:43.945Z,4.15
2019-03-02T01:40:50.555Z,4.13
2019-03-02T01:43:16.334Z,4.11
2019-03-02T01:45:42.151Z,4.09
2019-03-02T01:48:07.935Z,4.07
2019-03-02T01:50:33.717Z,4.06
2019-03-02T01:52:59.498Z,3.97
2019-03-02T01:55:27.827Z,3.97
2019-03-02T01:57:53.230Z,4.00
2019-03-02T02:00:40.693Z,4.01
2019-03-02T02:03:08.506Z,4.11
2019-03-02T02:08:08.539Z,4.22
2019-03-02T02:10:34.343Z,4.23
2019-03-02T02:13:02.786Z,4.19
2019-03-02T02:15:29.316Z,4.23
2019-03-02T02:17:55.693Z,4.19
2019-03-02T02:20:21.578Z,4.20
2019-03-02T02:22:47.366Z,4.22
2019-03-02T02:25:35.727Z,4.21
2019-03-02T02:28:00.703Z,4.22
2019-03-02T02:31:08.182Z,4.23
2019-03-02T02:33:42.609Z,4.21
2019-03-02T02:36:01.670Z,4.17
2019-03-02T02:38:27.465Z,4.20
2019-03-02T02:40:53.248Z,4.13
2019-03-02T02:43:21.216Z,4.10
2019-03-02T02:45:49.063Z,4.14
2019-03-02T02:48:14.421Z,4.09
2019-03-02T02:50:42.883Z,4.10
2019-03-02T02:53:08.373Z,4.19
2019-03-02T02:55:36.083Z,4.21
2019-03-02T02:58:03.285Z,4.22
2019-03-02T03:00:29.106Z,4.23
2019-03-02T03:02:54.881Z,4.14
2019-03-02T03:05:20.752Z,4.07
2019-03-02T03:08:32.222Z,4.03
2019-03-02T03:10:55.933Z,4.05
2019-03-02T03:13:21.710Z,4.03
2019-03-02T03:18:25.735Z,4.03
2019-03-02T03:20:51.527Z,4.03
2019-03-02T03:23:19.949Z,4.05
2019-03-02T03:25:45.045Z,4.04
2019-03-02T03:28:32.553Z,3.98
2019-03-02T03:30:58.484Z,3.98
2019-03-02T03:33:24.263Z,4.01
2019-03-02T03:35:51.695Z,4.01
2019-03-02T03:38:17.736Z,4.01
2019-03-02T03:40:43.510Z,4.03
2019-03-02T03:43:09.304Z,4.01
2019-03-02T03:45:42.457Z,4.01
2019-03-02T03:48:02.778Z,4.03
2019-03-02T03:50:28.557Z,3.97
2019-03-02T03:52:54.363Z,3.99
2019-03-02T03:55:25.077Z,4.03
2019-03-02T03:57:47.845Z,4.06
2019-03-02T04:03:40.742Z,3.98
2019-03-02T04:06:06.483Z,4.04
2019-03-02T04:08:32.275Z,4.06
2019-03-02T04:11:00.409Z,4.11
2019-03-02T04:13:25.763Z,4.07
2019-03-02T04:15:51.541Z,4.02
2019-03-02T04:18:39.123Z,3.97
2019-03-02T04:21:04.899Z,3.93
2019-03-02T04:23:30.799Z,4.01
2019-03-02T04:26:00.187Z,3.95
2019-03-02T04:28:27.674Z,3.94
2019-03-02T04:34:00.851Z,3.90
2019-03-02T04:36:26.635Z,3.92
2019-03-02T04:38:52.438Z,3.92
2019-03-02T04:41:18.213Z,3.84
2019-03-02T04:43:43.996Z,3.78
2019-03-02T04:46:11.764Z,3.73
2019-03-02T04:48:39.268Z,3.79
2019-03-02T04:51:05.139Z,3.86
2019-03-02T04:53:30.923Z,3.75
2019-03-02T04:55:56.703Z,3.76
2019-03-02T04:58:22.505Z,3.77
2019-03-02T05:00:48.309Z,3.76
2019-03-02T05:03:14.495Z,3.78
2019-03-02T05:05:40.610Z,3.79
2019-03-02T05:08:07.944Z,3.82
2019-03-02T05:10:33.746Z,3.84
2019-03-02T05:12:59.517Z,3.79
2019-03-02T05:15:25.306Z,3.89
2019-03-02T05:17:51.073Z,3.91
2019-03-02T05:20:16.872Z,3.93
2019-03-02T05:22:42.649Z,3.88
2019-03-02T05:25:51.585Z,3.86
2019-03-02T05:28:17.780Z,3.81
2019-03-02T05:30:43.570Z,3.81
2019-03-02T05:33:09.341Z,3.88
2019-03-02T05:35:35.133Z,3.92
2019-03-02T05:38:00.927Z,3.95
2019-03-02T05:40:27.765Z,3.92
2019-03-02T05:42:54.414Z,3.92
2019-03-02T05:45:20.345Z,3.87
2019-03-02T05:47:47.902Z,3.80
2019-03-02T05:53:30.232Z,3.82
2019-03-02T05:55:55.035Z,3.81
2019-03-02T05:58:40.691Z,3.83
2019-03-02T06:01:06.566Z,3.83
2019-03-02T06:03:32.355Z,3.79
2019-03-02T06:05:58.156Z,3.77
2019-03-02T06:08:23.932Z,3.77
2019-03-02T06:10:49.728Z,3.79
2019-03-02T06:13:15.500Z,3.75
2019-03-02T06:15:42.933Z,3.77
2019-03-02T06:18:08.970Z,3.82
2019-03-02T06:20:35.663Z,3.80
2019-03-02T06:23:02.440Z,3.85
2019-03-02T06:25:28.221Z,3.87
2019-03-02T06:27:54.005Z,3.91
2019-03-02T06:36:46.315Z,3.96
2019-03-02T06:39:12.087Z,3.98
2019-03-02T06:41:37.885Z,4.00
2019-03-02T06:44:03.656Z,4.04
2019-03-02T06:46:29.447Z,3.97
2019-03-02T06:48:55.213Z,4.03
2019-03-02T06:51:21.006Z,4.04
2019-03-02T06:53:46.781Z,4.02
2019-03-02T06:56:12.551Z,4.04
2019-03-02T06:58:38.332Z,4.02
2019-03-02T07:01:24.845Z,4.08
2019-03-02T07:03:51.694Z,4.08
2019-03-02T07:06:17.464Z,4.13
2019-03-02T07:08:43.253Z,4.13
2019-03-02T07:11:09.032Z,4.13
2019-03-02T07:13:34.826Z,4.16
2019-03-02T07:16:00.596Z,4.21
2019-03-02T07:18:46.271Z,4.12
2019-03-02T07:21:12.046Z,4.14
2019-03-02T07:23:37.851Z,4.15
2019-03-02T07:26:03.628Z,4.11
2019-03-02T07:28:29.425Z,4.15
2019-03-02T07:30:55.204Z,4.12
2019-03-02T07:33:21.002Z,4.15
2019-03-02T07:35:46.772Z,4.17
2019-03-02T07:38:12.562Z,4.22
2019-03-02T07:40:41.226Z,4.15
2019-03-02T07:43:09.606Z,4.15
2019-03-02T07:45:34.859Z,4.20
2019-03-02T07:48:01.556Z,4.22
2019-03-02T07:50:47.384Z,4.29
2019-03-02T07:53:13.191Z,4.29
2019-03-02T07:55:38.957Z,4.18
2019-03-02T07:58:04.768Z,4.25
2019-03-02T08:02:56.375Z,4.37
2019-03-02T08:05:22.214Z,4.50
2019-03-02T08:07:47.981Z,4.48
2019-03-02T08:10:13.768Z,4.58
2019-03-02T08:12:39.569Z,4.60
2019-03-02T08:18:21.701Z,4.65
2019-03-02T08:20:47.137Z,4.66
2019-03-02T08:23:12.916Z,4.69
2019-03-02T08:25:38.715Z,4.75
2019-03-02T08:28:06.734Z,4.76
2019-03-02T08:30:33.413Z,4.80
2019-03-02T08:32:59.857Z,4.79
2019-03-02T08:35:25.642Z,4.76
2019-03-02T08:37:51.411Z,4.85
2019-03-02T08:43:13.001Z,5.21
2019-03-02T08:45:38.826Z,5.44
2019-03-02T08:48:04.892Z,5.61
2019-03-02T08:50:32.340Z,5.66
2019-03-02T08:52:58.148Z,5.72
2019-03-02T08:55:23.931Z,5.68
2019-03-02T08:57:49.866Z,5.48
2019-03-02T09:00:57.361Z,5.39
2019-03-02T09:03:23.127Z,5.34
2019-03-02T09:05:51.826Z,5.28
2019-03-02T09:08:16.625Z,5.42
2019-03-02T09:10:45.912Z,5.42
2019-03-02T09:13:10.103Z,5.47
2019-03-02T09:15:35.902Z,5.52
2019-03-02T09:18:01.681Z,5.63
2019-03-02T09:20:27.464Z,5.68
2019-03-02T09:22:56.305Z,5.79
2019-03-02T09:25:24.004Z,5.73
2019-03-02T09:28:09.035Z,5.63
2019-03-02T09:30:34.834Z,5.63
2019-03-02T09:33:00.619Z,5.58
2019-03-02T09:35:26.439Z,5.63
2019-03-02T09:37:52.207Z,5.61
2019-03-02T09:40:37.893Z,5.62
2019-03-02T09:43:03.673Z,5.72
2019-03-02T09:45:29.455Z,5.65
2019-03-02T09:47:55.248Z,5.46
2019-03-02T09:51:02.712Z,5.36
2019-03-02T09:53:28.487Z,5.30
2019-03-02T09:55:56.411Z,5.40
2019-03-02T09:58:24.284Z,5.55
2019-03-02T10:00:49.656Z,5.61
2019-03-02T10:03:15.430Z,5.58
2019-03-02T10:05:41.206Z,5.58
2019-03-02T10:08:09.843Z,5.47
2019-03-02T10:10:34.699Z,5.44
2019-03-02T10:13:00.505Z,5.45
2019-03-02T10:15:46.165Z,5.53
2019-03-02T10:18:13.875Z,5.59
2019-03-02T10:20:42.570Z,5.49
2019-03-02T10:23:07.330Z,5.44
2019-03-02T10:25:33.116Z,5.52
2019-03-02T10:27:58.908Z,5.54
2019-03-02T10:30:25.961Z,5.64
2019-03-02T10:32:55.580Z,5.81
2019-03-02T10:35:20.150Z,5.86
2019-03-02T10:37:46.048Z,5.77
2019-03-02T10:40:31.702Z,5.76
2019-03-02T10:42:57.499Z,5.64
2019-03-02T10:45:23.288Z,5.65
2019-03-02T10:47:49.090Z,5.51
2019-03-02T10:50:59.508Z,5.36
2019-03-02T10:53:25.155Z,5.38
2019-03-02T10:55:51.936Z,5.19
2019-03-02T10:58:17.722Z,5.25
2019-03-02T11:00:43.497Z,5.25
2019-03-02T11:03:50.967Z,5.35
2019-03-02T11:09:45.726Z,5.52
2019-03-02T11:12:31.404Z,5.62
2019-03-02T11:15:17.083Z,5.58
2019-03-02T11:18:02.767Z,5.64
2019-03-02T11:20:48.439Z,5.55
2019-03-02T11:26:07.878Z,5.40
2019-03-02T11:34:01.221Z,5.13
2019-03-02T11:36:49.425Z,5.13
2019-03-02T11:39:34.457Z,5.22
2019-03-02T11:45:07.436Z,5.21
2019-03-02T11:47:53.096Z,5.39
2019-03-02T11:50:38.777Z,5.62
2019-03-02T11:53:24.438Z,5.62
2019-03-02T11:56:10.116Z,5.66
2019-03-02T12:01:43.087Z,6.15
2019-03-02T12:07:16.061Z,5.78
2019-03-02T12:12:56.531Z,5.87
2019-03-02T12:29:13.413Z,6.20
2019-03-02T12:32:19.817Z,6.07
2019-03-02T12:35:05.493Z,6.07
2019-03-02T12:38:12.881Z,6.34
2019-03-02T12:41:18.531Z,6.47
2019-03-02T12:44:04.193Z,6.47
2019-03-02T12:46:52.190Z,6.33
2019-03-02T12:55:23.701Z,6.04
2019-03-02T12:58:29.268Z,6.07
2019-03-02T13:09:54.443Z,6.47
2019-03-02T13:12:53.958Z,6.29
2019-03-02T13:15:38.088Z,6.40
2019-03-02T13:20:57.383Z,6.38
2019-03-02T13:23:43.540Z,6.41
2019-03-02T13:26:51.033Z,6.44
2019-03-02T13:34:57.930Z,6.49
2019-03-02T13:40:17.552Z,6.13
2019-03-02T13:48:17.640Z,6.20
2019-03-02T13:51:02.997Z,6.28
2019-03-02T13:57:20.276Z,6.34
2019-03-02T14:00:27.730Z,6.43
2019-03-02T14:03:33.316Z,6.55
2019-03-02T14:06:19.729Z,6.55
2019-03-02T14:11:39.802Z,6.63
2019-03-02T14:14:26.547Z,6.50
2019-03-02T14:17:12.796Z,6.49
2019-03-02T14:19:58.580Z,6.61
2019-03-02T14:28:12.393Z,6.66
2019-03-02T14:31:00.880Z,6.66
2019-03-02T14:36:39.257Z,6.88
2019-03-02T14:42:58.336Z,6.84
2019-03-02T14:48:17.879Z,6.88
2019-03-02T14:51:03.581Z,6.82
2019-03-02T14:57:03.295Z,6.94
2019-03-02T15:03:02.283Z,6.94
2019-03-02T15:05:47.962Z,6.79
2019-03-02T15:11:20.967Z,6.70
2019-03-02T15:14:05.360Z,6.81
2019-03-02T15:16:49.977Z,6.78
2019-03-02T15:19:35.685Z,6.78
2019-03-02T15:25:30.696Z,6.81
2019-03-02T15:28:38.567Z,6.89
2019-03-02T15:31:24.324Z,6.68
2019-03-02T15:34:29.903Z,6.66
2019-03-02T15:40:24.850Z,6.56
2019-03-02T15:46:17.776Z,6.70
2019-03-02T15:49:23.445Z,6.64
2019-03-02T15:54:47.391Z,6.63
2019-03-02T15:57:39.621Z,6.66
2019-03-02T16:00:40.545Z,6.58
2019-03-02T16:03:26.230Z,6.58
2019-03-02T16:06:11.917Z,6.53
2019-03-02T16:08:57.602Z,6.54
2019-03-02T16:11:43.300Z,6.54
2019-03-02T16:14:29.067Z,6.50
2019-03-02T16:17:14.759Z,6.54
2019-03-02T16:20:02.448Z,6.60
2019-03-02T16:22:48.014Z,6.64
2019-03-02T16:28:20.990Z,6.58
2019-03-02T16:31:26.585Z,6.58
2019-03-02T16:34:12.546Z,6.58
2019-03-02T16:36:58.304Z,6.57
2019-03-02T16:39:44.226Z,6.62
2019-03-02T16:42:29.965Z,6.56
2019-03-02T16:45:15.632Z,6.58
2019-03-02T16:50:34.625Z,6.59
2019-03-02T16:55:53.764Z,6.56
2019-03-02T17:01:20.864Z,6.52
2019-03-02T17:04:05.169Z,6.51
2019-03-02T17:06:54.666Z,6.48
2019-03-02T17:12:27.661Z,6.49
2019-03-02T17:15:13.317Z,6.49
2019-03-02T17:17:59.020Z,6.46
2019-03-02T17:26:10.518Z,6.34
2019-03-02T17:28:56.257Z,6.35
2019-03-02T17:31:42.882Z,6.29
